sensor_id;sensor_type;location;lat;lon;timestamp;P1;durP1;ratioP1;P2;durP2;ratioP2
50267;SDS011;36153;50.960;6.220;2024-02-26T00:00:50;1.53;;;0.83;;
50267;SDS011;36153;50.960;6.220;2024-02-26T00:02:50;2.78;;;0.85;;
50267;SDS011;36153;50.960;6.220;2024-02-26T00:04:50;1.55;;;0.95;;
50267;SDS011;36153;50.960;6.220;2024-02-26T00:06:51;2.00;;;0.73;;
50267;SDS011;36153;50.960;6.220;2024-02-26T00:08:54;1.15;;;0.73;;
50267;SDS011;36153;50.960;6.220;2024-02-26T00:10:55;2.03;;;0.80;;
50267;SDS011;36153;50.960;6.220;2024-02-26T00:12:55;1.10;;;0.63;;
50267;SDS011;36153;50.960;6.220;2024-02-26T00:14:55;1.40;;;0.93;;
50267;SDS011;36153;50.960;6.220;2024-02-26T00:16:58;1.38;;;0.80;;
50267;SDS011;36153;50.960;6.220;2024-02-26T00:18:58;3.25;;;0.82;;
50267;SDS011;36153;50.960;6.220;2024-02-26T00:20:58;2.05;;;0.80;;
50267;SDS011;36153;50.960;6.220;2024-02-26T00:23:00;2.08;;;0.73;;
50267;SDS011;36153;50.960;6.220;2024-02-26T00:25:00;1.13;;;0.57;;
50267;SDS011;36153;50.960;6.220;2024-02-26T00:27:00;1.00;;;0.60;;
50267;SDS011;36153;50.960;6.220;2024-02-26T00:29:01;1.10;;;0.60;;
50267;SDS011;36153;50.960;6.220;2024-02-26T00:31:01;1.17;;;0.60;;
50267;SDS011;36153;50.960;6.220;2024-02-26T00:33:01;4.43;;;0.77;;
50267;SDS011;36153;50.960;6.220;2024-02-26T00:35:02;2.60;;;0.57;;
50267;SDS011;36153;50.960;6.220;2024-02-26T00:37:02;1.70;;;0.90;;
50267;SDS011;36153;50.960;6.220;2024-02-26T00:39:02;1.15;;;0.65;;
50267;SDS011;36153;50.960;6.220;2024-02-26T00:41:03;1.35;;;0.70;;
50267;SDS011;36153;50.960;6.220;2024-02-26T00:43:03;2.33;;;0.80;;
50267;SDS011;36153;50.960;6.220;2024-02-26T00:45:04;1.58;;;0.90;;
50267;SDS011;36153;50.960;6.220;2024-02-26T00:47:04;1.67;;;0.73;;
50267;SDS011;36153;50.960;6.220;2024-02-26T00:49:05;1.88;;;1.10;;
50267;SDS011;36153;50.960;6.220;2024-02-26T00:51:05;1.83;;;1.05;;
50267;SDS011;36153;50.960;6.220;2024-02-26T00:53:05;2.35;;;0.82;;
50267;SDS011;36153;50.960;6.220;2024-02-26T00:55:06;1.10;;;0.77;;
50267;SDS011;36153;50.960;6.220;2024-02-26T00:57:06;1.73;;;0.70;;
50267;SDS011;36153;50.960;6.220;2024-02-26T00:59:07;2.45;;;0.93;;
50267;SDS011;36153;50.960;6.220;2024-02-26T01:01:08;2.33;;;1.05;;
50267;SDS011;36153;50.960;6.220;2024-02-26T01:03:09;2.35;;;1.60;;
50267;SDS011;36153;50.960;6.220;2024-02-26T01:05:10;3.42;;;1.05;;
50267;SDS011;36153;50.960;6.220;2024-02-26T01:07:10;1.77;;;0.80;;
50267;SDS011;36153;50.960;6.220;2024-02-26T01:09:11;1.75;;;1.13;;
50267;SDS011;36153;50.960;6.220;2024-02-26T01:11:11;1.25;;;0.80;;
50267;SDS011;36153;50.960;6.220;2024-02-26T01:13:11;2.30;;;0.98;;
50267;SDS011;36153;50.960;6.220;2024-02-26T01:15:11;1.15;;;0.65;;
50267;SDS011;36153;50.960;6.220;2024-02-26T01:17:12;1.58;;;0.80;;
50267;SDS011;36153;50.960;6.220;2024-02-26T01:19:12;1.70;;;0.70;;
50267;SDS011;36153;50.960;6.220;2024-02-26T01:21:12;1.70;;;0.82;;
50267;SDS011;36153;50.960;6.220;2024-02-26T01:23:13;1.88;;;0.77;;
50267;SDS011;36153;50.960;6.220;2024-02-26T01:25:13;1.00;;;0.73;;
50267;SDS011;36153;50.960;6.220;2024-02-26T01:27:14;1.35;;;0.80;;
50267;SDS011;36153;50.960;6.220;2024-02-26T01:29:15;1.50;;;0.75;;
50267;SDS011;36153;50.960;6.220;2024-02-26T01:31:15;1.23;;;0.85;;
50267;SDS011;36153;50.960;6.220;2024-02-26T01:33:16;2.90;;;0.63;;
50267;SDS011;36153;50.960;6.220;2024-02-26T01:35:16;1.63;;;0.70;;
50267;SDS011;36153;50.960;6.220;2024-02-26T01:37:16;1.30;;;0.60;;
50267;SDS011;36153;50.960;6.220;2024-02-26T01:39:16;2.33;;;0.63;;
50267;SDS011;36153;50.960;6.220;2024-02-26T01:41:18;2.92;;;0.77;;
50267;SDS011;36153;50.960;6.220;2024-02-26T01:43:18;1.35;;;0.70;;
50267;SDS011;36153;50.960;6.220;2024-02-26T01:45:18;1.88;;;0.68;;
50267;SDS011;36153;50.960;6.220;2024-02-26T01:47:24;1.13;;;0.60;;
50267;SDS011;36153;50.960;6.220;2024-02-26T01:49:26;1.50;;;0.60;;
50267;SDS011;36153;50.960;6.220;2024-02-26T01:51:26;0.90;;;0.50;;
50267;SDS011;36153;50.960;6.220;2024-02-26T01:53:27;1.95;;;0.80;;
50267;SDS011;36153;50.960;6.220;2024-02-26T01:55:28;1.15;;;0.50;;
50267;SDS011;36153;50.960;6.220;2024-02-26T01:57:28;1.08;;;0.57;;
50267;SDS011;36153;50.960;6.220;2024-02-26T01:59:29;1.52;;;0.80;;
50267;SDS011;36153;50.960;6.220;2024-02-26T02:01:30;2.15;;;0.80;;
50267;SDS011;36153;50.960;6.220;2024-02-26T02:03:31;1.77;;;0.70;;
50267;SDS011;36153;50.960;6.220;2024-02-26T02:05:32;1.33;;;0.98;;
50267;SDS011;36153;50.960;6.220;2024-02-26T02:07:33;1.20;;;0.73;;
50267;SDS011;36153;50.960;6.220;2024-02-26T02:09:35;1.20;;;0.60;;
50267;SDS011;36153;50.960;6.220;2024-02-26T02:11:36;2.67;;;0.50;;
50267;SDS011;36153;50.960;6.220;2024-02-26T02:13:37;1.10;;;0.70;;
50267;SDS011;36153;50.960;6.220;2024-02-26T02:15:39;1.52;;;0.65;;
50267;SDS011;36153;50.960;6.220;2024-02-26T02:17:39;2.35;;;0.65;;
50267;SDS011;36153;50.960;6.220;2024-02-26T02:19:40;1.70;;;0.88;;
50267;SDS011;36153;50.960;6.220;2024-02-26T02:21:40;1.10;;;0.80;;
50267;SDS011;36153;50.960;6.220;2024-02-26T02:23:41;2.17;;;1.00;;
50267;SDS011;36153;50.960;6.220;2024-02-26T02:25:46;2.13;;;0.90;;
50267;SDS011;36153;50.960;6.220;2024-02-26T02:27:46;1.75;;;0.90;;
50267;SDS011;36153;50.960;6.220;2024-02-26T02:29:46;1.80;;;0.68;;
50267;SDS011;36153;50.960;6.220;2024-02-26T02:31:47;1.40;;;1.08;;
50267;SDS011;36153;50.960;6.220;2024-02-26T02:33:48;1.48;;;0.93;;
50267;SDS011;36153;50.960;6.220;2024-02-26T02:35:49;1.63;;;0.80;;
50267;SDS011;36153;50.960;6.220;2024-02-26T02:37:51;1.75;;;0.75;;
50267;SDS011;36153;50.960;6.220;2024-02-26T02:39:52;3.42;;;0.82;;
50267;SDS011;36153;50.960;6.220;2024-02-26T02:41:54;1.73;;;0.80;;
50267;SDS011;36153;50.960;6.220;2024-02-26T02:43:55;1.88;;;0.70;;
50267;SDS011;36153;50.960;6.220;2024-02-26T02:45:55;1.90;;;0.75;;
50267;SDS011;36153;50.960;6.220;2024-02-26T02:47:56;3.00;;;0.80;;
50267;SDS011;36153;50.960;6.220;2024-02-26T02:49:56;1.48;;;0.88;;
50267;SDS011;36153;50.960;6.220;2024-02-26T02:51:56;2.35;;;0.90;;
50267;SDS011;36153;50.960;6.220;2024-02-26T02:53:58;2.28;;;0.93;;
50267;SDS011;36153;50.960;6.220;2024-02-26T02:55:58;2.08;;;1.08;;
50267;SDS011;36153;50.960;6.220;2024-02-26T02:57:58;2.03;;;1.15;;
50267;SDS011;36153;50.960;6.220;2024-02-26T02:59:59;1.58;;;0.90;;
50267;SDS011;36153;50.960;6.220;2024-02-26T03:01:59;2.63;;;0.70;;
50267;SDS011;36153;50.960;6.220;2024-02-26T03:03:59;2.58;;;0.90;;
50267;SDS011;36153;50.960;6.220;2024-02-26T03:06:00;3.78;;;0.70;;
50267;SDS011;36153;50.960;6.220;2024-02-26T03:08:00;1.63;;;0.90;;
50267;SDS011;36153;50.960;6.220;2024-02-26T03:10:02;0.88;;;0.60;;
50267;SDS011;36153;50.960;6.220;2024-02-26T03:12:02;1.90;;;0.80;;
50267;SDS011;36153;50.960;6.220;2024-02-26T03:14:03;1.48;;;0.75;;
50267;SDS011;36153;50.960;6.220;2024-02-26T03:16:05;2.25;;;1.00;;
50267;SDS011;36153;50.960;6.220;2024-02-26T03:18:05;2.47;;;0.90;;
50267;SDS011;36153;50.960;6.220;2024-02-26T03:20:07;0.95;;;0.52;;
50267;SDS011;36153;50.960;6.220;2024-02-26T03:22:09;1.42;;;0.77;;
50267;SDS011;36153;50.960;6.220;2024-02-26T03:24:10;2.72;;;0.98;;
50267;SDS011;36153;50.960;6.220;2024-02-26T03:26:12;1.33;;;0.82;;
50267;SDS011;36153;50.960;6.220;2024-02-26T03:28:14;1.00;;;0.52;;
50267;SDS011;36153;50.960;6.220;2024-02-26T03:30:15;1.58;;;0.80;;
50267;SDS011;36153;50.960;6.220;2024-02-26T03:32:17;0.90;;;0.73;;
50267;SDS011;36153;50.960;6.220;2024-02-26T03:34:17;2.40;;;0.93;;
50267;SDS011;36153;50.960;6.220;2024-02-26T03:36:19;2.10;;;0.93;;
50267;SDS011;36153;50.960;6.220;2024-02-26T03:38:21;1.30;;;0.60;;
50267;SDS011;36153;50.960;6.220;2024-02-26T03:40:22;1.67;;;0.73;;
50267;SDS011;36153;50.960;6.220;2024-02-26T03:42:22;1.00;;;0.60;;
50267;SDS011;36153;50.960;6.220;2024-02-26T03:44:23;0.75;;;0.50;;
50267;SDS011;36153;50.960;6.220;2024-02-26T03:46:24;1.27;;;0.73;;
50267;SDS011;36153;50.960;6.220;2024-02-26T03:48:24;1.92;;;0.57;;
50267;SDS011;36153;50.960;6.220;2024-02-26T03:50:25;0.47;;;0.43;;
50267;SDS011;36153;50.960;6.220;2024-02-26T03:52:26;1.05;;;0.40;;
50267;SDS011;36153;50.960;6.220;2024-02-26T03:54:26;2.55;;;0.73;;
50267;SDS011;36153;50.960;6.220;2024-02-26T03:56:27;5.78;;;1.27;;
50267;SDS011;36153;50.960;6.220;2024-02-26T03:58:27;2.13;;;0.73;;
50267;SDS011;36153;50.960;6.220;2024-02-26T04:00:28;0.95;;;0.47;;
50267;SDS011;36153;50.960;6.220;2024-02-26T04:02:30;1.60;;;0.73;;
50267;SDS011;36153;50.960;6.220;2024-02-26T04:04:33;0.52;;;0.35;;
50267;SDS011;36153;50.960;6.220;2024-02-26T04:06:34;1.20;;;0.60;;
50267;SDS011;36153;50.960;6.220;2024-02-26T04:08:34;1.70;;;0.70;;
50267;SDS011;36153;50.960;6.220;2024-02-26T04:10:36;1.00;;;0.43;;
50267;SDS011;36153;50.960;6.220;2024-02-26T04:12:39;1.60;;;0.50;;
50267;SDS011;36153;50.960;6.220;2024-02-26T04:14:41;1.23;;;0.57;;
50267;SDS011;36153;50.960;6.220;2024-02-26T04:16:41;0.88;;;0.50;;
50267;SDS011;36153;50.960;6.220;2024-02-26T04:18:42;0.93;;;0.40;;
50267;SDS011;36153;50.960;6.220;2024-02-26T04:20:42;2.08;;;0.50;;
50267;SDS011;36153;50.960;6.220;2024-02-26T04:22:43;0.70;;;0.40;;
50267;SDS011;36153;50.960;6.220;2024-02-26T04:24:44;0.85;;;0.60;;
50267;SDS011;36153;50.960;6.220;2024-02-26T04:26:44;0.63;;;0.43;;
50267;SDS011;36153;50.960;6.220;2024-02-26T04:28:44;1.38;;;0.60;;
50267;SDS011;36153;50.960;6.220;2024-02-26T04:30:45;0.68;;;0.47;;
50267;SDS011;36153;50.960;6.220;2024-02-26T04:32:45;0.75;;;0.45;;
50267;SDS011;36153;50.960;6.220;2024-02-26T04:34:45;1.80;;;0.55;;
50267;SDS011;36153;50.960;6.220;2024-02-26T04:36:46;1.75;;;0.63;;
50267;SDS011;36153;50.960;6.220;2024-02-26T04:38:48;2.63;;;0.60;;
50267;SDS011;36153;50.960;6.220;2024-02-26T04:40:48;1.48;;;0.50;;
50267;SDS011;36153;50.960;6.220;2024-02-26T04:42:49;1.13;;;0.55;;
50267;SDS011;36153;50.960;6.220;2024-02-26T04:44:50;1.10;;;0.50;;
50267;SDS011;36153;50.960;6.220;2024-02-26T04:46:50;1.45;;;0.40;;
50267;SDS011;36153;50.960;6.220;2024-02-26T04:48:50;1.40;;;0.60;;
50267;SDS011;36153;50.960;6.220;2024-02-26T04:50:51;1.10;;;0.40;;
50267;SDS011;36153;50.960;6.220;2024-02-26T04:52:52;1.08;;;0.50;;
50267;SDS011;36153;50.960;6.220;2024-02-26T04:54:52;3.00;;;0.90;;
50267;SDS011;36153;50.960;6.220;2024-02-26T04:56:52;1.13;;;0.50;;
50267;SDS011;36153;50.960;6.220;2024-02-26T04:58:52;0.50;;;0.30;;
50267;SDS011;36153;50.960;6.220;2024-02-26T05:00:54;1.10;;;0.55;;
50267;SDS011;36153;50.960;6.220;2024-02-26T05:02:55;1.02;;;0.47;;
50267;SDS011;36153;50.960;6.220;2024-02-26T05:04:56;0.47;;;0.30;;
50267;SDS011;36153;50.960;6.220;2024-02-26T05:06:56;0.50;;;0.32;;
50267;SDS011;36153;50.960;6.220;2024-02-26T05:08:56;0.88;;;0.40;;
50267;SDS011;36153;50.960;6.220;2024-02-26T05:10:57;1.20;;;0.43;;
50267;SDS011;36153;50.960;6.220;2024-02-26T05:12:57;1.20;;;0.50;;
50267;SDS011;36153;50.960;6.220;2024-02-26T05:14:58;0.57;;;0.52;;
50267;SDS011;36153;50.960;6.220;2024-02-26T05:16:59;1.95;;;0.70;;
50267;SDS011;36153;50.960;6.220;2024-02-26T05:18:59;2.22;;;0.47;;
50267;SDS011;36153;50.960;6.220;2024-02-26T05:20:59;0.90;;;0.50;;
50267;SDS011;36153;50.960;6.220;2024-02-26T05:23:00;1.25;;;0.52;;
50267;SDS011;36153;50.960;6.220;2024-02-26T05:25:00;0.88;;;0.47;;
50267;SDS011;36153;50.960;6.220;2024-02-26T05:27:00;1.63;;;0.60;;
50267;SDS011;36153;50.960;6.220;2024-02-26T05:29:01;2.88;;;0.70;;
50267;SDS011;36153;50.960;6.220;2024-02-26T05:31:01;1.58;;;0.90;;
50267;SDS011;36153;50.960;6.220;2024-02-26T05:33:03;1.63;;;0.40;;
50267;SDS011;36153;50.960;6.220;2024-02-26T05:35:04;1.55;;;0.70;;
50267;SDS011;36153;50.960;6.220;2024-02-26T05:37:04;1.20;;;0.50;;
50267;SDS011;36153;50.960;6.220;2024-02-26T05:39:05;1.00;;;0.50;;
50267;SDS011;36153;50.960;6.220;2024-02-26T05:41:05;1.15;;;0.50;;
50267;SDS011;36153;50.960;6.220;2024-02-26T05:43:05;2.15;;;1.00;;
50267;SDS011;36153;50.960;6.220;2024-02-26T05:45:06;1.63;;;1.10;;
50267;SDS011;36153;50.960;6.220;2024-02-26T05:47:07;1.50;;;0.77;;
50267;SDS011;36153;50.960;6.220;2024-02-26T05:49:07;1.05;;;0.43;;
50267;SDS011;36153;50.960;6.220;2024-02-26T05:51:07;3.13;;;1.08;;
50267;SDS011;36153;50.960;6.220;2024-02-26T05:53:09;2.33;;;0.80;;
50267;SDS011;36153;50.960;6.220;2024-02-26T05:55:09;1.30;;;0.60;;
50267;SDS011;36153;50.960;6.220;2024-02-26T05:57:10;1.52;;;0.63;;
50267;SDS011;36153;50.960;6.220;2024-02-26T05:59:11;1.40;;;0.65;;
50267;SDS011;36153;50.960;6.220;2024-02-26T06:01:11;1.63;;;0.77;;
50267;SDS011;36153;50.960;6.220;2024-02-26T06:03:12;1.85;;;0.50;;
50267;SDS011;36153;50.960;6.220;2024-02-26T06:05:13;1.48;;;0.70;;
50267;SDS011;36153;50.960;6.220;2024-02-26T06:07:14;1.42;;;0.70;;
50267;SDS011;36153;50.960;6.220;2024-02-26T06:09:14;1.48;;;0.70;;
50267;SDS011;36153;50.960;6.220;2024-02-26T06:11:14;1.83;;;0.63;;
50267;SDS011;36153;50.960;6.220;2024-02-26T06:13:15;1.90;;;0.60;;
50267;SDS011;36153;50.960;6.220;2024-02-26T06:15:15;1.77;;;1.00;;
50267;SDS011;36153;50.960;6.220;2024-02-26T06:17:16;3.50;;;1.13;;
50267;SDS011;36153;50.960;6.220;2024-02-26T06:19:16;2.00;;;1.08;;
50267;SDS011;36153;50.960;6.220;2024-02-26T06:21:16;1.77;;;1.05;;
50267;SDS011;36153;50.960;6.220;2024-02-26T06:23:17;2.50;;;1.30;;
50267;SDS011;36153;50.960;6.220;2024-02-26T06:25:17;1.88;;;1.13;;
50267;SDS011;36153;50.960;6.220;2024-02-26T06:27:18;3.65;;;1.08;;
50267;SDS011;36153;50.960;6.220;2024-02-26T06:29:18;1.48;;;0.80;;
50267;SDS011;36153;50.960;6.220;2024-02-26T06:31:18;2.20;;;1.30;;
50267;SDS011;36153;50.960;6.220;2024-02-26T06:33:19;2.17;;;0.90;;
50267;SDS011;36153;50.960;6.220;2024-02-26T06:35:19;1.75;;;1.02;;
50267;SDS011;36153;50.960;6.220;2024-02-26T06:37:19;2.70;;;1.38;;
50267;SDS011;36153;50.960;6.220;2024-02-26T06:39:20;2.78;;;1.30;;
50267;SDS011;36153;50.960;6.220;2024-02-26T06:41:20;2.47;;;1.05;;
50267;SDS011;36153;50.960;6.220;2024-02-26T06:43:21;2.20;;;1.13;;
50267;SDS011;36153;50.960;6.220;2024-02-26T06:45:21;3.05;;;1.13;;
50267;SDS011;36153;50.960;6.220;2024-02-26T06:47:22;1.73;;;0.82;;
50267;SDS011;36153;50.960;6.220;2024-02-26T06:49:22;2.88;;;1.30;;
50267;SDS011;36153;50.960;6.220;2024-02-26T06:51:23;2.20;;;1.02;;
50267;SDS011;36153;50.960;6.220;2024-02-26T06:53:23;1.63;;;1.08;;
50267;SDS011;36153;50.960;6.220;2024-02-26T06:55:24;3.20;;;1.33;;
50267;SDS011;36153;50.960;6.220;2024-02-26T06:57:24;2.92;;;1.42;;
50267;SDS011;36153;50.960;6.220;2024-02-26T06:59:25;2.97;;;1.60;;
50267;SDS011;36153;50.960;6.220;2024-02-26T07:01:25;3.78;;;1.45;;
50267;SDS011;36153;50.960;6.220;2024-02-26T07:03:26;2.35;;;1.35;;
50267;SDS011;36153;50.960;6.220;2024-02-26T07:05:29;3.50;;;2.08;;
50267;SDS011;36153;50.960;6.220;2024-02-26T07:09:30;2.60;;;1.20;;
50267;SDS011;36153;50.960;6.220;2024-02-26T07:11:31;1.95;;;1.23;;
50267;SDS011;36153;50.960;6.220;2024-02-26T07:13:32;2.88;;;1.38;;
50267;SDS011;36153;50.960;6.220;2024-02-26T07:15:32;3.25;;;1.70;;
50267;SDS011;36153;50.960;6.220;2024-02-26T07:17:34;3.67;;;2.15;;
50267;SDS011;36153;50.960;6.220;2024-02-26T07:19:34;2.72;;;1.70;;
50267;SDS011;36153;50.960;6.220;2024-02-26T07:21:34;2.60;;;1.90;;
50267;SDS011;36153;50.960;6.220;2024-02-26T07:23:35;2.97;;;1.65;;
50267;SDS011;36153;50.960;6.220;2024-02-26T07:25:35;2.58;;;1.60;;
50267;SDS011;36153;50.960;6.220;2024-02-26T07:27:35;3.15;;;2.05;;
50267;SDS011;36153;50.960;6.220;2024-02-26T07:29:36;3.70;;;2.50;;
50267;SDS011;36153;50.960;6.220;2024-02-26T07:31:36;4.38;;;2.67;;
50267;SDS011;36153;50.960;6.220;2024-02-26T07:33:36;3.90;;;2.33;;
50267;SDS011;36153;50.960;6.220;2024-02-26T07:35:37;3.92;;;2.13;;
50267;SDS011;36153;50.960;6.220;2024-02-26T07:37:38;4.95;;;2.20;;
50267;SDS011;36153;50.960;6.220;2024-02-26T07:39:40;2.58;;;1.80;;
50267;SDS011;36153;50.960;6.220;2024-02-26T07:41:40;2.40;;;1.70;;
50267;SDS011;36153;50.960;6.220;2024-02-26T07:43:40;3.20;;;1.85;;
50267;SDS011;36153;50.960;6.220;2024-02-26T07:45:41;3.30;;;2.03;;
50267;SDS011;36153;50.960;6.220;2024-02-26T07:47:41;5.72;;;1.95;;
50267;SDS011;36153;50.960;6.220;2024-02-26T07:49:41;2.40;;;1.85;;
50267;SDS011;36153;50.960;6.220;2024-02-26T07:51:41;3.80;;;2.23;;
50267;SDS011;36153;50.960;6.220;2024-02-26T07:53:42;4.00;;;2.42;;
50267;SDS011;36153;50.960;6.220;2024-02-26T07:55:42;3.67;;;1.95;;
50267;SDS011;36153;50.960;6.220;2024-02-26T07:57:42;3.67;;;2.15;;
50267;SDS011;36153;50.960;6.220;2024-02-26T07:59:43;2.97;;;1.95;;
50267;SDS011;36153;50.960;6.220;2024-02-26T08:01:48;3.15;;;1.90;;
50267;SDS011;36153;50.960;6.220;2024-02-26T08:03:49;2.90;;;1.98;;
50267;SDS011;36153;50.960;6.220;2024-02-26T08:05:51;2.75;;;1.63;;
50267;SDS011;36153;50.960;6.220;2024-02-26T08:07:51;3.70;;;1.95;;
50267;SDS011;36153;50.960;6.220;2024-02-26T08:09:53;3.47;;;2.72;;
50267;SDS011;36153;50.960;6.220;2024-02-26T08:11:54;3.63;;;2.33;;
50267;SDS011;36153;50.960;6.220;2024-02-26T08:13:55;2.53;;;2.15;;
50267;SDS011;36153;50.960;6.220;2024-02-26T08:15:55;2.90;;;2.35;;
50267;SDS011;36153;50.960;6.220;2024-02-26T08:17:57;3.70;;;2.03;;
50267;SDS011;36153;50.960;6.220;2024-02-26T08:19:57;3.25;;;1.92;;
50267;SDS011;36153;50.960;6.220;2024-02-26T08:21:57;2.90;;;1.75;;
50267;SDS011;36153;50.960;6.220;2024-02-26T08:23:57;3.33;;;1.90;;
50267;SDS011;36153;50.960;6.220;2024-02-26T08:25:58;3.72;;;2.45;;
50267;SDS011;36153;50.960;6.220;2024-02-26T08:27:58;4.63;;;2.35;;
50267;SDS011;36153;50.960;6.220;2024-02-26T08:29:59;3.10;;;2.15;;
50267;SDS011;36153;50.960;6.220;2024-02-26T08:31:59;11.70;;;2.55;;
50267;SDS011;36153;50.960;6.220;2024-02-26T08:33:59;3.88;;;2.40;;
50267;SDS011;36153;50.960;6.220;2024-02-26T08:36:04;2.80;;;2.13;;
50267;SDS011;36153;50.960;6.220;2024-02-26T08:38:05;4.82;;;2.33;;
50267;SDS011;36153;50.960;6.220;2024-02-26T08:40:05;2.83;;;2.03;;
50267;SDS011;36153;50.960;6.220;2024-02-26T08:42:06;3.17;;;2.25;;
50267;SDS011;36153;50.960;6.220;2024-02-26T08:44:06;3.28;;;1.90;;
50267;SDS011;36153;50.960;6.220;2024-02-26T08:46:10;2.67;;;2.10;;
50267;SDS011;36153;50.960;6.220;2024-02-26T08:48:12;3.17;;;1.90;;
50267;SDS011;36153;50.960;6.220;2024-02-26T08:50:13;3.08;;;1.98;;
50267;SDS011;36153;50.960;6.220;2024-02-26T08:52:14;2.38;;;1.80;;
50267;SDS011;36153;50.960;6.220;2024-02-26T08:54:15;3.78;;;1.90;;
50267;SDS011;36153;50.960;6.220;2024-02-26T08:56:15;4.38;;;2.08;;
50267;SDS011;36153;50.960;6.220;2024-02-26T08:58:18;2.58;;;1.58;;
50267;SDS011;36153;50.960;6.220;2024-02-26T09:00:20;2.63;;;1.25;;
50267;SDS011;36153;50.960;6.220;2024-02-26T09:02:21;2.30;;;1.45;;
50267;SDS011;36153;50.960;6.220;2024-02-26T09:04:21;2.63;;;1.67;;
50267;SDS011;36153;50.960;6.220;2024-02-26T09:06:21;1.58;;;1.42;;
50267;SDS011;36153;50.960;6.220;2024-02-26T09:08:21;4.45;;;1.85;;
50267;SDS011;36153;50.960;6.220;2024-02-26T09:10:22;2.17;;;1.30;;
50267;SDS011;36153;50.960;6.220;2024-02-26T09:12:22;2.35;;;1.48;;
50267;SDS011;36153;50.960;6.220;2024-02-26T09:14:22;2.63;;;1.45;;
50267;SDS011;36153;50.960;6.220;2024-02-26T09:16:23;3.58;;;1.77;;
50267;SDS011;36153;50.960;6.220;2024-02-26T09:18:23;2.03;;;1.50;;
50267;SDS011;36153;50.960;6.220;2024-02-26T09:20:23;2.83;;;1.63;;
50267;SDS011;36153;50.960;6.220;2024-02-26T09:22:24;2.42;;;1.42;;
50267;SDS011;36153;50.960;6.220;2024-02-26T09:24:24;2.50;;;1.38;;
50267;SDS011;36153;50.960;6.220;2024-02-26T09:26:26;2.35;;;1.15;;
50267;SDS011;36153;50.960;6.220;2024-02-26T09:28:26;2.97;;;1.73;;
50267;SDS011;36153;50.960;6.220;2024-02-26T09:30:31;2.25;;;1.38;;
50267;SDS011;36153;50.960;6.220;2024-02-26T09:32:31;2.05;;;1.73;;
50267;SDS011;36153;50.960;6.220;2024-02-26T09:34:32;1.98;;;1.15;;
50267;SDS011;36153;50.960;6.220;2024-02-26T09:36:33;2.58;;;1.50;;
50267;SDS011;36153;50.960;6.220;2024-02-26T09:38:34;3.03;;;1.42;;
50267;SDS011;36153;50.960;6.220;2024-02-26T09:40:39;1.73;;;1.30;;
50267;SDS011;36153;50.960;6.220;2024-02-26T09:42:43;3.03;;;1.60;;
50267;SDS011;36153;50.960;6.220;2024-02-26T09:44:45;2.47;;;1.40;;
50267;SDS011;36153;50.960;6.220;2024-02-26T09:46:49;2.10;;;1.27;;
50267;SDS011;36153;50.960;6.220;2024-02-26T09:48:52;2.67;;;1.42;;
50267;SDS011;36153;50.960;6.220;2024-02-26T09:50:53;2.33;;;1.38;;
50267;SDS011;36153;50.960;6.220;2024-02-26T09:52:53;2.22;;;1.13;;
50267;SDS011;36153;50.960;6.220;2024-02-26T09:54:54;1.90;;;1.20;;
50267;SDS011;36153;50.960;6.220;2024-02-26T09:56:54;2.10;;;1.20;;
50267;SDS011;36153;50.960;6.220;2024-02-26T09:59:00;1.70;;;1.10;;
50267;SDS011;36153;50.960;6.220;2024-02-26T10:01:06;2.53;;;1.40;;
50267;SDS011;36153;50.960;6.220;2024-02-26T10:03:12;1.92;;;1.25;;
50267;SDS011;36153;50.960;6.220;2024-02-26T10:05:18;4.97;;;2.60;;
50267;SDS011;36153;50.960;6.220;2024-02-26T10:07:21;4.18;;;2.33;;
50267;SDS011;36153;50.960;6.220;2024-02-26T10:09:21;2.13;;;1.40;;
50267;SDS011;36153;50.960;6.220;2024-02-26T10:11:22;1.10;;;1.00;;
50267;SDS011;36153;50.960;6.220;2024-02-26T10:13:23;3.35;;;1.15;;
50267;SDS011;36153;50.960;6.220;2024-02-26T10:15:24;1.42;;;1.08;;
50267;SDS011;36153;50.960;6.220;2024-02-26T10:17:24;2.08;;;1.40;;
50267;SDS011;36153;50.960;6.220;2024-02-26T10:19:25;1.63;;;1.30;;
50267;SDS011;36153;50.960;6.220;2024-02-26T10:21:26;4.35;;;2.15;;
50267;SDS011;36153;50.960;6.220;2024-02-26T10:23:27;3.10;;;2.70;;
50267;SDS011;36153;50.960;6.220;2024-02-26T10:25:27;4.45;;;1.85;;
50267;SDS011;36153;50.960;6.220;2024-02-26T10:27:28;2.72;;;2.10;;
50267;SDS011;36153;50.960;6.220;2024-02-26T10:29:28;2.58;;;1.50;;
50267;SDS011;36153;50.960;6.220;2024-02-26T10:31:28;2.10;;;1.65;;
50267;SDS011;36153;50.960;6.220;2024-02-26T10:33:29;1.00;;;0.80;;
50267;SDS011;36153;50.960;6.220;2024-02-26T10:35:29;2.10;;;1.10;;
50267;SDS011;36153;50.960;6.220;2024-02-26T10:37:31;2.70;;;1.42;;
50267;SDS011;36153;50.960;6.220;2024-02-26T10:39:31;1.35;;;1.00;;
50267;SDS011;36153;50.960;6.220;2024-02-26T10:41:35;1.73;;;0.95;;
50267;SDS011;36153;50.960;6.220;2024-02-26T10:43:35;3.13;;;1.08;;
50267;SDS011;36153;50.960;6.220;2024-02-26T10:45:35;1.40;;;0.73;;
50267;SDS011;36153;50.960;6.220;2024-02-26T10:47:37;1.75;;;1.20;;
50267;SDS011;36153;50.960;6.220;2024-02-26T10:49:37;1.50;;;0.70;;
50267;SDS011;36153;50.960;6.220;2024-02-26T10:51:38;1.20;;;0.70;;
50267;SDS011;36153;50.960;6.220;2024-02-26T10:53:40;2.55;;;0.90;;
50267;SDS011;36153;50.960;6.220;2024-02-26T10:55:45;3.33;;;0.68;;
50267;SDS011;36153;50.960;6.220;2024-02-26T10:57:52;1.85;;;0.52;;
50267;SDS011;36153;50.960;6.220;2024-02-26T10:59:52;1.00;;;0.70;;
50267;SDS011;36153;50.960;6.220;2024-02-26T11:01:54;1.45;;;0.85;;
50267;SDS011;36153;50.960;6.220;2024-02-26T11:03:55;2.42;;;1.15;;
50267;SDS011;36153;50.960;6.220;2024-02-26T11:05:58;2.50;;;1.15;;
50267;SDS011;36153;50.960;6.220;2024-02-26T11:08:00;2.08;;;0.93;;
50267;SDS011;36153;50.960;6.220;2024-02-26T11:10:03;1.65;;;1.20;;
50267;SDS011;36153;50.960;6.220;2024-02-26T11:12:04;1.75;;;1.30;;
50267;SDS011;36153;50.960;6.220;2024-02-26T11:14:10;1.52;;;1.10;;
50267;SDS011;36153;50.960;6.220;2024-02-26T11:16:13;1.77;;;1.08;;
50267;SDS011;36153;50.960;6.220;2024-02-26T11:18:14;2.15;;;1.25;;
50267;SDS011;36153;50.960;6.220;2024-02-26T11:20:16;2.40;;;1.23;;
50267;SDS011;36153;50.960;6.220;2024-02-26T11:22:17;2.80;;;1.10;;
50267;SDS011;36153;50.960;6.220;2024-02-26T11:24:21;1.38;;;1.10;;
50267;SDS011;36153;50.960;6.220;2024-02-26T11:26:22;2.35;;;1.60;;
50267;SDS011;36153;50.960;6.220;2024-02-26T11:28:24;2.15;;;1.10;;
50267;SDS011;36153;50.960;6.220;2024-02-26T11:30:29;2.50;;;1.45;;
50267;SDS011;36153;50.960;6.220;2024-02-26T11:32:32;2.90;;;1.45;;
50267;SDS011;36153;50.960;6.220;2024-02-26T11:34:35;2.47;;;1.23;;
50267;SDS011;36153;50.960;6.220;2024-02-26T11:36:35;3.00;;;1.20;;
50267;SDS011;36153;50.960;6.220;2024-02-26T11:38:36;2.10;;;1.30;;
50267;SDS011;36153;50.960;6.220;2024-02-26T11:40:37;2.25;;;1.27;;
50267;SDS011;36153;50.960;6.220;2024-02-26T11:42:45;2.53;;;1.50;;
50267;SDS011;36153;50.960;6.220;2024-02-26T11:44:47;2.08;;;1.58;;
50267;SDS011;36153;50.960;6.220;2024-02-26T11:46:47;3.17;;;1.73;;
50267;SDS011;36153;50.960;6.220;2024-02-26T11:48:48;1.63;;;1.15;;
50267;SDS011;36153;50.960;6.220;2024-02-26T11:50:50;2.22;;;1.42;;
50267;SDS011;36153;50.960;6.220;2024-02-26T11:55:32;1.50;;;1.35;;
50267;SDS011;36153;50.960;6.220;2024-02-26T11:57:39;1.95;;;1.35;;
50267;SDS011;36153;50.960;6.220;2024-02-26T11:59:40;3.00;;;1.58;;
50267;SDS011;36153;50.960;6.220;2024-02-26T12:01:47;2.38;;;1.65;;
50267;SDS011;36153;50.960;6.220;2024-02-26T12:03:48;1.50;;;1.10;;
50267;SDS011;36153;50.960;6.220;2024-02-26T12:05:48;2.03;;;1.30;;
50267;SDS011;36153;50.960;6.220;2024-02-26T12:07:55;3.88;;;1.95;;
50267;SDS011;36153;50.960;6.220;2024-02-26T12:12:25;1.67;;;1.42;;
50267;SDS011;36153;50.960;6.220;2024-02-26T12:14:27;3.45;;;1.60;;
50267;SDS011;36153;50.960;6.220;2024-02-26T12:16:39;2.88;;;1.65;;